sensor_id;sensor_type;location;lat;lon;timestamp;P1;durP1;ratioP1;P2;durP2;ratioP2
17953;SDS011;9102;53.548;9.926;2022-08-25T00:01:35;6.57;;;3.60;;
17953;SDS011;9102;53.548;9.926;2022-08-25T00:04:05;7.90;;;3.75;;
17953;SDS011;9102;53.548;9.926;2022-08-25T00:06:35;6.45;;;3.90;;
17953;SDS011;9102;53.548;9.926;2022-08-25T00:09:03;6.43;;;4.10;;
17953;SDS011;9102;53.548;9.926;2022-08-25T00:11:31;8.23;;;3.83;;
17953;SDS011;9102;53.548;9.926;2022-08-25T00:14:00;8.73;;;4.43;;
17953;SDS011;9102;53.548;9.926;2022-08-25T00:16:31;6.53;;;4.00;;
17953;SDS011;9102;53.548;9.926;2022-08-25T00:18:59;7.78;;;4.00;;
17953;SDS011;9102;53.548;9.926;2022-08-25T00:21:29;8.77;;;4.35;;
17953;SDS011;9102;53.548;9.926;2022-08-25T00:23:57;6.95;;;4.15;;
17953;SDS011;9102;53.548;9.926;2022-08-25T00:26:27;8.38;;;4.35;;
17953;SDS011;9102;53.548;9.926;2022-08-25T00:28:54;6.55;;;4.32;;
17953;SDS011;9102;53.548;9.926;2022-08-25T00:31:21;9.75;;;4.65;;
17953;SDS011;9102;53.548;9.926;2022-08-25T00:33:49;10.82;;;4.78;;
17953;SDS011;9102;53.548;9.926;2022-08-25T00:36:19;11.18;;;5.45;;
17953;SDS011;9102;53.548;9.926;2022-08-25T00:38:46;8.02;;;4.50;;
17953;SDS011;9102;53.548;9.926;2022-08-25T00:41:16;8.02;;;4.50;;
17953;SDS011;9102;53.548;9.926;2022-08-25T00:43:47;5.93;;;4.15;;
17953;SDS011;9102;53.548;9.926;2022-08-25T00:46:17;7.18;;;4.28;;
17953;SDS011;9102;53.548;9.926;2022-08-25T00:48:46;7.07;;;4.28;;
17953;SDS011;9102;53.548;9.926;2022-08-25T00:51:18;8.93;;;4.60;;
17953;SDS011;9102;53.548;9.926;2022-08-25T00:53:50;9.18;;;4.78;;
17953;SDS011;9102;53.548;9.926;2022-08-25T00:56:17;7.80;;;4.35;;
17953;SDS011;9102;53.548;9.926;2022-08-25T00:58:46;8.90;;;4.60;;
17953;SDS011;9102;53.548;9.926;2022-08-25T01:01:13;8.20;;;4.45;;
17953;SDS011;9102;53.548;9.926;2022-08-25T01:03:39;6.93;;;4.53;;
17953;SDS011;9102;53.548;9.926;2022-08-25T01:06:06;7.65;;;4.22;;
17953;SDS011;9102;53.548;9.926;2022-08-25T01:08:34;8.43;;;4.18;;
17953;SDS011;9102;53.548;9.926;2022-08-25T01:11:02;8.15;;;4.60;;
17953;SDS011;9102;53.548;9.926;2022-08-25T01:13:32;7.28;;;4.40;;
17953;SDS011;9102;53.548;9.926;2022-08-25T01:16:04;5.78;;;4.50;;
17953;SDS011;9102;53.548;9.926;2022-08-25T01:18:41;7.55;;;4.55;;
17953;SDS011;9102;53.548;9.926;2022-08-25T01:21:15;7.40;;;4.28;;
17953;SDS011;9102;53.548;9.926;2022-08-25T01:23:44;12.13;;;4.53;;
17953;SDS011;9102;53.548;9.926;2022-08-25T01:26:11;9.80;;;4.45;;
17953;SDS011;9102;53.548;9.926;2022-08-25T01:28:40;7.75;;;4.63;;
17953;SDS011;9102;53.548;9.926;2022-08-25T01:31:25;5.97;;;4.47;;
17953;SDS011;9102;53.548;9.926;2022-08-25T01:33:53;8.65;;;4.47;;
17953;SDS011;9102;53.548;9.926;2022-08-25T01:36:22;9.77;;;4.68;;
17953;SDS011;9102;53.548;9.926;2022-08-25T01:38:50;10.35;;;4.32;;
17953;SDS011;9102;53.548;9.926;2022-08-25T01:41:19;7.47;;;4.57;;
17953;SDS011;9102;53.548;9.926;2022-08-25T01:43:50;9.60;;;4.80;;
17953;SDS011;9102;53.548;9.926;2022-08-25T01:46:17;9.80;;;5.30;;
17953;SDS011;9102;53.548;9.926;2022-08-25T01:48:44;10.38;;;4.82;;
17953;SDS011;9102;53.548;9.926;2022-08-25T01:51:12;8.32;;;4.93;;
17953;SDS011;9102;53.548;9.926;2022-08-25T01:53:42;8.77;;;4.63;;
17953;SDS011;9102;53.548;9.926;2022-08-25T01:56:09;8.48;;;5.15;;
17953;SDS011;9102;53.548;9.926;2022-08-25T01:58:39;9.95;;;4.97;;
17953;SDS011;9102;53.548;9.926;2022-08-25T02:01:08;9.25;;;4.60;;
17953;SDS011;9102;53.548;9.926;2022-08-25T02:03:40;8.65;;;4.70;;
17953;SDS011;9102;53.548;9.926;2022-08-25T02:06:09;8.80;;;4.70;;
17953;SDS011;9102;53.548;9.926;2022-08-25T02:08:36;8.15;;;4.45;;
17953;SDS011;9102;53.548;9.926;2022-08-25T02:11:05;8.23;;;4.78;;
17953;SDS011;9102;53.548;9.926;2022-08-25T02:13:35;9.88;;;4.70;;
17953;SDS011;9102;53.548;9.926;2022-08-25T02:16:02;6.38;;;4.78;;
17953;SDS011;9102;53.548;9.926;2022-08-25T02:18:30;6.78;;;4.88;;
17953;SDS011;9102;53.548;9.926;2022-08-25T02:20:57;9.45;;;4.75;;
17953;SDS011;9102;53.548;9.926;2022-08-25T02:23:23;7.68;;;4.43;;
17953;SDS011;9102;53.548;9.926;2022-08-25T02:25:51;7.88;;;5.10;;
17953;SDS011;9102;53.548;9.926;2022-08-25T02:28:19;8.32;;;5.45;;
17953;SDS011;9102;53.548;9.926;2022-08-25T02:30:46;5.80;;;4.50;;
17953;SDS011;9102;53.548;9.926;2022-08-25T02:33:12;9.10;;;5.13;;
17953;SDS011;9102;53.548;9.926;2022-08-25T02:35:39;11.52;;;4.85;;
17953;SDS011;9102;53.548;9.926;2022-08-25T02:38:06;11.85;;;5.20;;
17953;SDS011;9102;53.548;9.926;2022-08-25T02:40:33;9.82;;;4.90;;
17953;SDS011;9102;53.548;9.926;2022-08-25T02:43:00;9.07;;;4.95;;
17953;SDS011;9102;53.548;9.926;2022-08-25T02:45:28;7.15;;;4.72;;
17953;SDS011;9102;53.548;9.926;2022-08-25T02:47:55;8.95;;;5.45;;
17953;SDS011;9102;53.548;9.926;2022-08-25T02:50:22;8.82;;;4.85;;
17953;SDS011;9102;53.548;9.926;2022-08-25T02:52:50;7.93;;;5.28;;
17953;SDS011;9102;53.548;9.926;2022-08-25T02:55:18;10.60;;;5.20;;
17953;SDS011;9102;53.548;9.926;2022-08-25T02:57:45;8.93;;;4.97;;
17953;SDS011;9102;53.548;9.926;2022-08-25T03:00:14;8.10;;;4.53;;
17953;SDS011;9102;53.548;9.926;2022-08-25T03:02:43;7.53;;;4.68;;
17953;SDS011;9102;53.548;9.926;2022-08-25T03:05:11;8.13;;;5.03;;
17953;SDS011;9102;53.548;9.926;2022-08-25T03:07:39;6.40;;;4.85;;
17953;SDS011;9102;53.548;9.926;2022-08-25T03:10:07;8.20;;;5.15;;
17953;SDS011;9102;53.548;9.926;2022-08-25T03:12:36;9.98;;;5.35;;
17953;SDS011;9102;53.548;9.926;2022-08-25T03:15:05;8.63;;;5.28;;
17953;SDS011;9102;53.548;9.926;2022-08-25T03:17:33;9.55;;;5.70;;
17953;SDS011;9102;53.548;9.926;2022-08-25T03:20:02;8.00;;;5.25;;
17953;SDS011;9102;53.548;9.926;2022-08-25T03:22:29;8.20;;;5.55;;
17953;SDS011;9102;53.548;9.926;2022-08-25T03:24:57;9.10;;;5.68;;
17953;SDS011;9102;53.548;9.926;2022-08-25T03:27:44;7.88;;;5.38;;
17953;SDS011;9102;53.548;9.926;2022-08-25T03:30:10;7.68;;;5.60;;
17953;SDS011;9102;53.548;9.926;2022-08-25T03:32:38;10.80;;;5.78;;
17953;SDS011;9102;53.548;9.926;2022-08-25T03:35:07;13.85;;;5.90;;
17953;SDS011;9102;53.548;9.926;2022-08-25T03:37:34;11.02;;;5.72;;
17953;SDS011;9102;53.548;9.926;2022-08-25T03:40:01;7.38;;;4.82;;
17953;SDS011;9102;53.548;9.926;2022-08-25T03:42:30;8.30;;;5.20;;
17953;SDS011;9102;53.548;9.926;2022-08-25T03:44:57;8.93;;;6.07;;
17953;SDS011;9102;53.548;9.926;2022-08-25T03:47:23;10.35;;;5.88;;
17953;SDS011;9102;53.548;9.926;2022-08-25T03:49:53;10.65;;;5.90;;
17953;SDS011;9102;53.548;9.926;2022-08-25T03:52:21;9.88;;;6.00;;
17953;SDS011;9102;53.548;9.926;2022-08-25T03:54:48;9.18;;;5.93;;
17953;SDS011;9102;53.548;9.926;2022-08-25T03:57:15;8.05;;;5.60;;
17953;SDS011;9102;53.548;9.926;2022-08-25T03:59:42;9.50;;;6.55;;
17953;SDS011;9102;53.548;9.926;2022-08-25T04:02:09;8.63;;;5.60;;
17953;SDS011;9102;53.548;9.926;2022-08-25T04:04:39;11.13;;;6.28;;
17953;SDS011;9102;53.548;9.926;2022-08-25T04:07:06;8.30;;;5.60;;
17953;SDS011;9102;53.548;9.926;2022-08-25T04:09:34;10.98;;;5.95;;
17953;SDS011;9102;53.548;9.926;2022-08-25T04:12:02;7.80;;;5.28;;
17953;SDS011;9102;53.548;9.926;2022-08-25T04:14:29;8.85;;;5.72;;
17953;SDS011;9102;53.548;9.926;2022-08-25T04:16:56;8.15;;;5.40;;
17953;SDS011;9102;53.548;9.926;2022-08-25T04:19:23;8.88;;;5.55;;
17953;SDS011;9102;53.548;9.926;2022-08-25T04:21:50;10.73;;;5.38;;
17953;SDS011;9102;53.548;9.926;2022-08-25T04:24:17;10.32;;;5.63;;
17953;SDS011;9102;53.548;9.926;2022-08-25T04:26:48;8.30;;;5.70;;
17953;SDS011;9102;53.548;9.926;2022-08-25T04:29:17;8.55;;;5.55;;
17953;SDS011;9102;53.548;9.926;2022-08-25T04:31:46;6.90;;;5.20;;
17953;SDS011;9102;53.548;9.926;2022-08-25T04:34:14;10.68;;;5.53;;
17953;SDS011;9102;53.548;9.926;2022-08-25T04:36:42;8.88;;;5.65;;
17953;SDS011;9102;53.548;9.926;2022-08-25T04:39:09;10.50;;;5.30;;
17953;SDS011;9102;53.548;9.926;2022-08-25T04:41:36;11.52;;;5.57;;
17953;SDS011;9102;53.548;9.926;2022-08-25T04:44:04;10.60;;;5.72;;
17953;SDS011;9102;53.548;9.926;2022-08-25T04:46:32;9.30;;;5.22;;
17953;SDS011;9102;53.548;9.926;2022-08-25T04:49:00;10.18;;;6.13;;
17953;SDS011;9102;53.548;9.926;2022-08-25T04:51:28;7.95;;;5.88;;
17953;SDS011;9102;53.548;9.926;2022-08-25T04:53:57;9.38;;;6.00;;
17953;SDS011;9102;53.548;9.926;2022-08-25T04:56:26;10.60;;;5.80;;
17953;SDS011;9102;53.548;9.926;2022-08-25T04:58:54;9.55;;;5.82;;
17953;SDS011;9102;53.548;9.926;2022-08-25T05:01:23;13.43;;;6.30;;
17953;SDS011;9102;53.548;9.926;2022-08-25T05:03:55;7.72;;;5.25;;
17953;SDS011;9102;53.548;9.926;2022-08-25T05:06:23;9.23;;;5.82;;
17953;SDS011;9102;53.548;9.926;2022-08-25T05:08:51;10.10;;;6.18;;
17953;SDS011;9102;53.548;9.926;2022-08-25T05:11:18;10.50;;;5.97;;
17953;SDS011;9102;53.548;9.926;2022-08-25T05:13:46;10.57;;;6.00;;
17953;SDS011;9102;53.548;9.926;2022-08-25T05:16:14;10.10;;;6.03;;
17953;SDS011;9102;53.548;9.926;2022-08-25T05:18:43;9.27;;;5.90;;
17953;SDS011;9102;53.548;9.926;2022-08-25T05:21:10;8.82;;;5.80;;
17953;SDS011;9102;53.548;9.926;2022-08-25T05:23:39;13.13;;;5.85;;
17953;SDS011;9102;53.548;9.926;2022-08-25T05:26:09;10.18;;;6.25;;
17953;SDS011;9102;53.548;9.926;2022-08-25T05:28:37;9.90;;;6.13;;
17953;SDS011;9102;53.548;9.926;2022-08-25T05:31:06;12.40;;;6.43;;
17953;SDS011;9102;53.548;9.926;2022-08-25T05:33:34;9.90;;;6.05;;
17953;SDS011;9102;53.548;9.926;2022-08-25T05:36:03;11.07;;;7.15;;
17953;SDS011;9102;53.548;9.926;2022-08-25T05:38:30;13.98;;;7.28;;
17953;SDS011;9102;53.548;9.926;2022-08-25T05:40:57;12.45;;;7.18;;
17953;SDS011;9102;53.548;9.926;2022-08-25T05:43:25;10.02;;;6.60;;
17953;SDS011;9102;53.548;9.926;2022-08-25T05:45:53;14.55;;;6.90;;
17953;SDS011;9102;53.548;9.926;2022-08-25T05:48:20;10.13;;;6.47;;
17953;SDS011;9102;53.548;9.926;2022-08-25T05:50:50;15.93;;;7.32;;
17953;SDS011;9102;53.548;9.926;2022-08-25T05:53:19;10.27;;;6.30;;
17953;SDS011;9102;53.548;9.926;2022-08-25T05:55:46;12.07;;;6.35;;
17953;SDS011;9102;53.548;9.926;2022-08-25T05:58:14;15.23;;;7.38;;
17953;SDS011;9102;53.548;9.926;2022-08-25T06:00:41;11.75;;;7.38;;
17953;SDS011;9102;53.548;9.926;2022-08-25T06:03:08;10.63;;;7.07;;
17953;SDS011;9102;53.548;9.926;2022-08-25T06:05:33;9.77;;;7.00;;
17953;SDS011;9102;53.548;9.926;2022-08-25T06:08:01;13.88;;;7.47;;
17953;SDS011;9102;53.548;9.926;2022-08-25T06:10:31;16.58;;;8.40;;
17953;SDS011;9102;53.548;9.926;2022-08-25T06:12:58;14.55;;;8.27;;
17953;SDS011;9102;53.548;9.926;2022-08-25T06:15:25;12.00;;;8.30;;
17953;SDS011;9102;53.548;9.926;2022-08-25T06:17:52;15.65;;;9.02;;
17953;SDS011;9102;53.548;9.926;2022-08-25T06:20:23;19.98;;;11.60;;
17953;SDS011;9102;53.548;9.926;2022-08-25T06:22:52;17.77;;;10.70;;
17953;SDS011;9102;53.548;9.926;2022-08-25T06:25:20;21.60;;;13.30;;
17953;SDS011;9102;53.548;9.926;2022-08-25T06:27:50;22.38;;;13.68;;
17953;SDS011;9102;53.548;9.926;2022-08-25T06:30:18;20.92;;;13.80;;
17953;SDS011;9102;53.548;9.926;2022-08-25T06:32:46;19.27;;;12.73;;
17953;SDS011;9102;53.548;9.926;2022-08-25T06:35:14;20.17;;;14.05;;
17953;SDS011;9102;53.548;9.926;2022-08-25T06:37:43;24.10;;;14.27;;
17953;SDS011;9102;53.548;9.926;2022-08-25T06:40:10;26.02;;;14.80;;
17953;SDS011;9102;53.548;9.926;2022-08-25T06:42:38;20.75;;;15.45;;
17953;SDS011;9102;53.548;9.926;2022-08-25T06:45:07;23.65;;;15.05;;
17953;SDS011;9102;53.548;9.926;2022-08-25T06:47:34;23.63;;;14.75;;
17953;SDS011;9102;53.548;9.926;2022-08-25T06:50:01;25.63;;;15.50;;
17953;SDS011;9102;53.548;9.926;2022-08-25T06:52:28;23.80;;;14.18;;
17953;SDS011;9102;53.548;9.926;2022-08-25T06:54:56;27.33;;;16.13;;
17953;SDS011;9102;53.548;9.926;2022-08-25T06:57:22;22.20;;;14.50;;
17953;SDS011;9102;53.548;9.926;2022-08-25T06:59:49;19.15;;;12.55;;
17953;SDS011;9102;53.548;9.926;2022-08-25T07:02:18;20.00;;;14.55;;
17953;SDS011;9102;53.548;9.926;2022-08-25T07:04:45;25.58;;;14.05;;
17953;SDS011;9102;53.548;9.926;2022-08-25T07:07:12;22.88;;;13.68;;
17953;SDS011;9102;53.548;9.926;2022-08-25T07:09:38;20.63;;;13.13;;
17953;SDS011;9102;53.548;9.926;2022-08-25T07:12:06;23.02;;;13.95;;
17953;SDS011;9102;53.548;9.926;2022-08-25T07:14:33;21.00;;;12.85;;
17953;SDS011;9102;53.548;9.926;2022-08-25T07:17:01;26.08;;;13.65;;
17953;SDS011;9102;53.548;9.926;2022-08-25T07:19:29;18.15;;;13.30;;
17953;SDS011;9102;53.548;9.926;2022-08-25T07:21:56;20.45;;;14.18;;
17953;SDS011;9102;53.548;9.926;2022-08-25T07:24:23;23.95;;;13.10;;
17953;SDS011;9102;53.548;9.926;2022-08-25T07:26:50;18.95;;;11.98;;
17953;SDS011;9102;53.548;9.926;2022-08-25T07:29:18;25.30;;;13.65;;
17953;SDS011;9102;53.548;9.926;2022-08-25T07:31:47;18.30;;;12.95;;
17953;SDS011;9102;53.548;9.926;2022-08-25T07:34:14;17.30;;;12.80;;
17953;SDS011;9102;53.548;9.926;2022-08-25T07:37:00;18.10;;;12.57;;
17953;SDS011;9102;53.548;9.926;2022-08-25T07:39:28;18.17;;;11.65;;
17953;SDS011;9102;53.548;9.926;2022-08-25T07:41:58;14.05;;;11.15;;
17953;SDS011;9102;53.548;9.926;2022-08-25T07:44:25;19.02;;;11.25;;
17953;SDS011;9102;53.548;9.926;2022-08-25T07:46:52;16.67;;;10.90;;
17953;SDS011;9102;53.548;9.926;2022-08-25T07:49:20;12.25;;;9.80;;
17953;SDS011;9102;53.548;9.926;2022-08-25T07:51:48;16.30;;;9.50;;
17953;SDS011;9102;53.548;9.926;2022-08-25T07:54:16;14.77;;;10.48;;
17953;SDS011;9102;53.548;9.926;2022-08-25T07:56:43;16.33;;;10.48;;
17953;SDS011;9102;53.548;9.926;2022-08-25T07:59:10;12.43;;;9.70;;
17953;SDS011;9102;53.548;9.926;2022-08-25T08:01:37;14.50;;;10.10;;
17953;SDS011;9102;53.548;9.926;2022-08-25T08:04:05;13.13;;;10.35;;
17953;SDS011;9102;53.548;9.926;2022-08-25T08:06:32;20.15;;;10.32;;
17953;SDS011;9102;53.548;9.926;2022-08-25T08:08:58;16.00;;;10.70;;
17953;SDS011;9102;53.548;9.926;2022-08-25T08:11:29;14.55;;;10.30;;
17953;SDS011;9102;53.548;9.926;2022-08-25T08:14:00;13.77;;;10.13;;
17953;SDS011;9102;53.548;9.926;2022-08-25T08:16:28;15.00;;;9.43;;
17953;SDS011;9102;53.548;9.926;2022-08-25T08:18:56;12.90;;;11.02;;
17953;SDS011;9102;53.548;9.926;2022-08-25T08:21:24;13.13;;;10.55;;
17953;SDS011;9102;53.548;9.926;2022-08-25T08:23:52;16.38;;;10.32;;
17953;SDS011;9102;53.548;9.926;2022-08-25T08:26:20;11.23;;;9.50;;
17953;SDS011;9102;53.548;9.926;2022-08-25T08:28:49;14.05;;;9.55;;
17953;SDS011;9102;53.548;9.926;2022-08-25T08:31:16;14.57;;;9.82;;
17953;SDS011;9102;53.548;9.926;2022-08-25T08:33:44;13.82;;;10.70;;
17953;SDS011;9102;53.548;9.926;2022-08-25T08:36:11;11.82;;;9.90;;
17953;SDS011;9102;53.548;9.926;2022-08-25T08:38:39;14.02;;;9.48;;
17953;SDS011;9102;53.548;9.926;2022-08-25T08:41:11;14.40;;;10.35;;
17953;SDS011;9102;53.548;9.926;2022-08-25T08:44:06;17.58;;;10.00;;
17953;SDS011;9102;53.548;9.926;2022-08-25T08:46:42;18.42;;;9.98;;
17953;SDS011;9102;53.548;9.926;2022-08-25T08:49:17;11.98;;;9.25;;
17953;SDS011;9102;53.548;9.926;2022-08-25T08:51:50;12.43;;;8.60;;
17953;SDS011;9102;53.548;9.926;2022-08-25T08:54:23;15.77;;;10.27;;
17953;SDS011;9102;53.548;9.926;2022-08-25T08:56:55;14.52;;;9.27;;
17953;SDS011;9102;53.548;9.926;2022-08-25T08:59:32;14.02;;;9.45;;
17953;SDS011;9102;53.548;9.926;2022-08-25T09:02:11;12.80;;;9.57;;
17953;SDS011;9102;53.548;9.926;2022-08-25T09:04:42;13.48;;;10.45;;
17953;SDS011;9102;53.548;9.926;2022-08-25T09:07:12;12.27;;;9.65;;
17953;SDS011;9102;53.548;9.926;2022-08-25T09:09:42;15.95;;;10.10;;
17953;SDS011;9102;53.548;9.926;2022-08-25T09:12:10;16.48;;;10.52;;
17953;SDS011;9102;53.548;9.926;2022-08-25T09:14:45;19.35;;;11.57;;
17953;SDS011;9102;53.548;9.926;2022-08-25T09:17:21;15.45;;;10.45;;
17953;SDS011;9102;53.548;9.926;2022-08-25T09:20:18;14.52;;;9.73;;
17953;SDS011;9102;53.548;9.926;2022-08-25T09:22:58;12.82;;;9.23;;
17953;SDS011;9102;53.548;9.926;2022-08-25T09:25:37;12.55;;;9.07;;
17953;SDS011;9102;53.548;9.926;2022-08-25T09:28:12;11.38;;;8.35;;
17953;SDS011;9102;53.548;9.926;2022-08-25T09:30:46;17.20;;;10.25;;
17953;SDS011;9102;53.548;9.926;2022-08-25T09:33:20;15.88;;;10.05;;
17953;SDS011;9102;53.548;9.926;2022-08-25T09:35:49;12.07;;;9.82;;
17953;SDS011;9102;53.548;9.926;2022-08-25T09:38:18;16.65;;;10.55;;
17953;SDS011;9102;53.548;9.926;2022-08-25T09:40:45;15.68;;;10.90;;
17953;SDS011;9102;53.548;9.926;2022-08-25T09:43:19;13.95;;;10.57;;
17953;SDS011;9102;53.548;9.926;2022-08-25T09:45:57;11.65;;;9.75;;
17953;SDS011;9102;53.548;9.926;2022-08-25T09:48:26;17.45;;;11.40;;
17953;SDS011;9102;53.548;9.926;2022-08-25T09:50:57;14.98;;;10.75;;
17953;SDS011;9102;53.548;9.926;2022-08-25T09:53:26;13.80;;;11.55;;
17953;SDS011;9102;53.548;9.926;2022-08-25T09:55:56;14.07;;;9.93;;
17953;SDS011;9102;53.548;9.926;2022-08-25T09:58:29;16.23;;;10.23;;
17953;SDS011;9102;53.548;9.926;2022-08-25T10:01:02;13.77;;;9.90;;
17953;SDS011;9102;53.548;9.926;2022-08-25T10:03:32;13.38;;;9.50;;
17953;SDS011;9102;53.548;9.926;2022-08-25T10:06:00;17.73;;;10.63;;
17953;SDS011;9102;53.548;9.926;2022-08-25T10:08:32;13.07;;;10.10;;
17953;SDS011;9102;53.548;9.926;2022-08-25T10:11:01;12.43;;;9.98;;
17953;SDS011;9102;53.548;9.926;2022-08-25T10:13:34;13.02;;;9.40;;
17953;SDS011;9102;53.548;9.926;2022-08-25T10:16:05;18.67;;;9.95;;
17953;SDS011;9102;53.548;9.926;2022-08-25T10:18:34;12.10;;;9.40;;
17953;SDS011;9102;53.548;9.926;2022-08-25T10:21:03;15.57;;;9.55;;
17953;SDS011;9102;53.548;9.926;2022-08-25T10:23:32;16.75;;;9.93;;
17953;SDS011;9102;53.548;9.926;2022-08-25T10:26:03;13.82;;;9.48;;
17953;SDS011;9102;53.548;9.926;2022-08-25T10:28:37;13.70;;;9.98;;
17953;SDS011;9102;53.548;9.926;2022-08-25T10:31:13;12.75;;;9.90;;
17953;SDS011;9102;53.548;9.926;2022-08-25T10:33:49;13.90;;;9.85;;
17953;SDS011;9102;53.548;9.926;2022-08-25T10:36:26;12.27;;;9.15;;
17953;SDS011;9102;53.548;9.926;2022-08-25T10:39:03;13.65;;;9.10;;
17953;SDS011;9102;53.548;9.926;2022-08-25T10:41:35;22.17;;;10.18;;
17953;SDS011;9102;53.548;9.926;2022-08-25T10:44:13;14.30;;;8.65;;
17953;SDS011;9102;53.548;9.926;2022-08-25T10:47:23;13.27;;;9.77;;
17953;SDS011;9102;53.548;9.926;2022-08-25T10:50:12;12.43;;;8.35;;
17953;SDS011;9102;53.548;9.926;2022-08-25T10:52:58;16.52;;;9.68;;
17953;SDS011;9102;53.548;9.926;2022-08-25T10:55:36;13.68;;;8.93;;
17953;SDS011;9102;53.548;9.926;2022-08-25T10:58:15;14.65;;;9.38;;
17953;SDS011;9102;53.548;9.926;2022-08-25T11:00:53;11.93;;;8.00;;
17953;SDS011;9102;53.548;9.926;2022-08-25T11:03:30;12.52;;;7.97;;
17953;SDS011;9102;53.548;9.926;2022-08-25T11:06:05;15.48;;;7.78;;
17953;SDS011;9102;53.548;9.926;2022-08-25T11:08:39;10.68;;;7.78;;
17953;SDS011;9102;53.548;9.926;2022-08-25T11:11:09;9.95;;;7.80;;
17953;SDS011;9102;53.548;9.926;2022-08-25T11:13:46;14.48;;;7.53;;
17953;SDS011;9102;53.548;9.926;2022-08-25T11:16:17;11.70;;;7.38;;
17953;SDS011;9102;53.548;9.926;2022-08-25T11:18:51;9.88;;;6.72;;
17953;SDS011;9102;53.548;9.926;2022-08-25T11:21:22;10.18;;;6.93;;
17953;SDS011;9102;53.548;9.926;2022-08-25T11:23:57;14.38;;;6.95;;
17953;SDS011;9102;53.548;9.926;2022-08-25T11:26:31;11.30;;;6.07;;
17953;SDS011;9102;53.548;9.926;2022-08-25T11:29:02;8.57;;;6.70;;
17953;SDS011;9102;53.548;9.926;2022-08-25T11:31:34;10.50;;;5.90;;
17953;SDS011;9102;53.548;9.926;2022-08-25T11:34:07;8.82;;;5.57;;
17953;SDS011;9102;53.548;9.926;2022-08-25T11:36:36;7.85;;;5.40;;
17953;SDS011;9102;53.548;9.926;2022-08-25T11:39:11;9.40;;;5.68;;
17953;SDS011;9102;53.548;9.926;2022-08-25T11:41:45;8.35;;;5.30;;
17953;SDS011;9102;53.548;9.926;2022-08-25T11:44:30;13.18;;;4.88;;
17953;SDS011;9102;53.548;9.926;2022-08-25T11:47:23;5.90;;;4.13;;
17953;SDS011;9102;53.548;9.926;2022-08-25T11:50:03;8.77;;;4.70;;
17953;SDS011;9102;53.548;9.926;2022-08-25T11:52:41;10.90;;;4.82;;
17953;SDS011;9102;53.548;9.926;2022-08-25T11:55:11;13.18;;;5.20;;
17953;SDS011;9102;53.548;9.926;2022-08-25T11:57:42;6.93;;;4.25;;
17953;SDS011;9102;53.548;9.926;2022-08-25T12:00:11;7.95;;;4.50;;
17953;SDS011;9102;53.548;9.926;2022-08-25T12:02:40;6.80;;;4.28;;
17953;SDS011;9102;53.548;9.926;2022-08-25T12:05:11;8.32;;;5.25;;
17953;SDS011;9102;53.548;9.926;2022-08-25T12:11:46;7.30;;;4.38;;
17953;SDS011;9102;53.548;9.926;2022-08-25T12:14:17;7.93;;;3.63;;
17953;SDS011;9102;53.548;9.926;2022-08-25T12:17:24;8.07;;;4.30;;
17953;SDS011;9102;53.548;9.926;2022-08-25T12:20:02;11.73;;;4.18;;
17953;SDS011;9102;53.548;9.926;2022-08-25T12:22:53;7.22;;;3.47;;
17953;SDS011;9102;53.548;9.926;2022-08-25T12:25:30;7.63;;;4.47;;
17953;SDS011;9102;53.548;9.926;2022-08-25T12:28:07;8.73;;;4.15;;
17953;SDS011;9102;53.548;9.926;2022-08-25T12:30:51;9.52;;;4.68;;
17953;SDS011;9102;53.548;9.926;2022-08-25T12:33:27;8.15;;;4.00;;
17953;SDS011;9102;53.548;9.926;2022-08-25T12:36:05;9.70;;;4.38;;
17953;SDS011;9102;53.548;9.926;2022-08-25T12:38:41;8.45;;;4.75;;
17953;SDS011;9102;53.548;9.926;2022-08-25T12:41:11;6.72;;;4.25;;
17953;SDS011;9102;53.548;9.926;2022-08-25T12:43:40;7.28;;;3.92;;
17953;SDS011;9102;53.548;9.926;2022-08-25T12:48:58;6.90;;;3.83;;
17953;SDS011;9102;53.548;9.926;2022-08-25T12:51:26;12.20;;;3.67;;
17953;SDS011;9102;53.548;9.926;2022-08-25T12:54:15;9.23;;;4.30;;
17953;SDS011;9102;53.548;9.926;2022-08-25T12:56:49;6.68;;;3.85;;
17953;SDS011;9102;53.548;9.926;2022-08-25T12:59:21;5.55;;;3.85;;
17953;SDS011;9102;53.548;9.926;2022-08-25T13:01:53;7.50;;;3.42;;
17953;SDS011;9102;53.548;9.926;2022-08-25T13:04:46;6.53;;;3.60;;
17953;SDS011;9102;53.548;9.926;2022-08-25T13:07:37;6.68;;;3.30;;
17953;SDS011;9102;53.548;9.926;2022-08-25T13:10:19;5.97;;;3.78;;
17953;SDS011;9102;53.548;9.926;2022-08-25T13:12:50;12.90;;;3.55;;
17953;SDS011;9102;53.548;9.926;2022-08-25T13:15:25;9.50;;;3.80;;
17953;SDS011;9102;53.548;9.926;2022-08-25T13:21:00;10.25;;;3.97;;
17953;SDS011;9102;53.548;9.926;2022-08-25T13:23:32;13.02;;;3.80;;
17953;SDS011;9102;53.548;9.926;2022-08-25T13:26:02;5.82;;;3.33;;
17953;SDS011;9102;53.548;9.926;2022-08-25T13:28:31;10.88;;;3.58;;
17953;SDS011;9102;53.548;9.926;2022-08-25T13:31:01;4.53;;;2.97;;
17953;SDS011;9102;53.548;9.926;2022-08-25T13:33:32;4.93;;;3.08;;
17953;SDS011;9102;53.548;9.926;2022-08-25T13:36:00;6.90;;;3.22;;
17953;SDS011;9102;53.548;9.926;2022-08-25T13:38:45;8.45;;;4.18;;
17953;SDS011;9102;53.548;9.926;2022-08-25T13:41:19;7.57;;;3.78;;
17953;SDS011;9102;53.548;9.926;2022-08-25T13:43:49;5.00;;;3.45;;
17953;SDS011;9102;53.548;9.926;2022-08-25T13:46:17;6.85;;;3.50;;
17953;SDS011;9102;53.548;9.926;2022-08-25T13:48:45;6.95;;;4.32;;
17953;SDS011;9102;53.548;9.926;2022-08-25T13:51:16;5.07;;;3.47;;
17953;SDS011;9102;53.548;9.926;2022-08-25T13:53:47;12.05;;;3.90;;
17953;SDS011;9102;53.548;9.926;2022-08-25T13:56:23;8.13;;;3.42;;
17953;SDS011;9102;53.548;9.926;2022-08-25T13:58:51;7.68;;;3.20;;
17953;SDS011;9102;53.548;9.926;2022-08-25T14:01:19;7.18;;;3.45;;
17953;SDS011;9102;53.548;9.926;2022-08-25T14:03:48;10.48;;;3.63;;
17953;SDS011;9102;53.548;9.926;2022-08-25T14:06:18;6.13;;;3.70;;
17953;SDS011;9102;53.548;9.926;2022-08-25T14:08:47;12.57;;;3.90;;
17953;SDS011;9102;53.548;9.926;2022-08-25T14:11:32;7.72;;;3.30;;
17953;SDS011;9102;53.548;9.926;2022-08-25T14:14:07;5.25;;;3.35;;
17953;SDS011;9102;53.548;9.926;2022-08-25T14:16:37;13.00;;;3.72;;
17953;SDS011;9102;53.548;9.926;2022-08-25T14:19:07;6.75;;;3.40;;
17953;SDS011;9102;53.548;9.926;2022-08-25T14:21:40;5.43;;;3.58;;
17953;SDS011;9102;53.548;9.926;2022-08-25T14:24:07;7.88;;;3.78;;
17953;SDS011;9102;53.548;9.926;2022-08-25T14:26:35;7.55;;;3.83;;
17953;SDS011;9102;53.548;9.926;2022-08-25T14:29:02;7.30;;;3.88;;
17953;SDS011;9102;53.548;9.926;2022-08-25T14:31:29;11.75;;;3.22;;
17953;SDS011;9102;53.548;9.926;2022-08-25T14:34:01;7.93;;;3.80;;
17953;SDS011;9102;53.548;9.926;2022-08-25T14:36:33;6.32;;;3.90;;
17953;SDS011;9102;53.548;9.926;2022-08-25T14:39:00;5.57;;;3.25;;
17953;SDS011;9102;53.548;9.926;2022-08-25T14:41:30;5.03;;;3.47;;
17953;SDS011;9102;53.548;9.926;2022-08-25T14:44:00;6.75;;;3.28;;
17953;SDS011;9102;53.548;9.926;2022-08-25T14:46:28;6.15;;;3.30;;
17953;SDS011;9102;53.548;9.926;2022-08-25T14:48:57;7.80;;;3.55;;
17953;SDS011;9102;53.548;9.926;2022-08-25T14:51:25;7.40;;;3.80;;
17953;SDS011;9102;53.548;9.926;2022-08-25T14:53:54;9.60;;;3.75;;
17953;SDS011;9102;53.548;9.926;2022-08-25T14:56:24;6.82;;;3.80;;
17953;SDS011;9102;53.548;9.926;2022-08-25T14:58:51;6.05;;;3.67;;
17953;SDS011;9102;53.548;9.926;2022-08-25T15:01:20;6.10;;;3.15;;
17953;SDS011;9102;53.548;9.926;2022-08-25T15:03:49;7.35;;;5.50;;
17953;SDS011;9102;53.548;9.926;2022-08-25T15:06:21;7.07;;;4.20;;
17953;SDS011;9102;53.548;9.926;2022-08-25T15:08:48;6.97;;;3.72;;
17953;SDS011;9102;53.548;9.926;2022-08-25T15:11:32;9.23;;;3.70;;
17953;SDS011;9102;53.548;9.926;2022-08-25T15:13:59;8.38;;;3.58;;
17953;SDS011;9102;53.548;9.926;2022-08-25T15:16:28;8.65;;;4.05;;
17953;SDS011;9102;53.548;9.926;2022-08-25T15:18:56;9.27;;;3.70;;
17953;SDS011;9102;53.548;9.926;2022-08-25T15:21:23;8.65;;;3.60;;
17953;SDS011;9102;53.548;9.926;2022-08-25T15:23:50;12.70;;;4.18;;